Time;durP1;ratioP1;P1;durP2;ratioP2;P2;SDS_P1;SDS_P2;PMS_P1;PMS_P2;Temp;Humidity;BMP_temperature;BMP_pressure;BME280_temperature;BME280_humidity;BME280_pressure;Samples;Min_cycle;Max_cycle;Signal;HPM_P1;HPM_P2
2021/12/06 00:02:27;;;;;;;32.63;18.63;;;;;;;;;;5053444;28;20431;-65
2021/12/06 00:04:53;;;;;;;35.08;19.60;;;;;;;;;;5053506;28;20048;-65
2021/12/06 00:07:22;;;;;;;32.25;18.38;;;;;;;;;;5052773;28;20044;-65
2021/12/06 00:09:48;;;;;;;35.35;20.08;;;;;;;;;;5053236;28;20416;-65
2021/12/06 00:12:15;;;;;;;34.60;20.08;;;;;;;;;;5053278;28;20041;-65
2021/12/06 00:14:42;;;;;;;31.00;17.73;;;;;;;;;;5052675;28;20052;-66
2021/12/06 00:17:10;;;;;;;36.10;18.10;;;;;;;;;;5053292;28;20041;-66
2021/12/06 00:19:36;;;;;;;35.05;18.35;;;;;;;;;;5052958;28;20052;-66
2021/12/06 00:22:04;;;;;;;35.38;17.98;;;;;;;;;;5052353;28;20036;-65
2021/12/06 00:24:30;;;;;;;35.13;17.58;;;;;;;;;;5052720;28;20057;-65
2021/12/06 00:26:57;;;;;;;40.53;19.05;;;;;;;;;;5052845;28;20396;-65
2021/12/06 00:29:23;;;;;;;36.65;18.60;;;;;;;;;;5052272;28;20048;-65
2021/12/06 00:31:50;;;;;;;35.97;19.10;;;;;;;;;;5052488;28;20041;-65
2021/12/06 00:34:18;;;;;;;34.10;17.88;;;;;;;;;;5052989;28;20044;-65
2021/12/06 00:36:53;;;;;;;40.38;19.52;;;;;;;;;;5033977;28;20103;-65
2021/12/06 00:39:21;;;;;;;40.70;19.92;;;;;;;;;;5052381;28;20049;-65
2021/12/06 00:41:47;;;;;;;40.17;19.45;;;;;;;;;;5052312;28;20041;-66
2021/12/06 00:44:13;;;;;;;39.70;19.40;;;;;;;;;;5052059;28;20356;-66
2021/12/06 00:46:39;;;;;;;39.53;19.23;;;;;;;;;;5052658;28;20056;-66
2021/12/06 00:49:06;;;;;;;35.25;18.30;;;;;;;;;;5052618;28;20483;-66
2021/12/06 00:51:32;;;;;;;43.65;20.25;;;;;;;;;;5051673;28;20045;-66
2021/12/06 00:53:59;;;;;;;42.75;19.98;;;;;;;;;;5052547;28;20592;-65
2021/12/06 00:56:25;;;;;;;42.92;20.95;;;;;;;;;;5052313;28;20056;-65
2021/12/06 00:58:51;;;;;;;41.08;19.83;;;;;;;;;;5051739;28;20403;-65
2021/12/06 01:01:17;;;;;;;41.05;20.45;;;;;;;;;;5052258;28;20075;-65
2021/12/06 01:03:43;;;;;;;40.88;20.27;;;;;;;;;;5034446;28;20048;-65
2021/12/06 01:06:10;;;;;;;41.90;20.58;;;;;;;;;;5051587;28;20048;-65
2021/12/06 01:08:37;;;;;;;43.17;20.50;;;;;;;;;;5052290;28;20040;-65
2021/12/06 01:11:05;;;;;;;42.63;21.67;;;;;;;;;;5052131;28;20041;-65
2021/12/06 01:13:31;;;;;;;43.30;21.00;;;;;;;;;;5051328;28;20029;-65
2021/12/06 01:15:57;;;;;;;40.92;20.48;;;;;;;;;;5052186;28;20383;-65
2021/12/06 01:18:24;;;;;;;45.13;22.65;;;;;;;;;;5051797;28;20068;-65
2021/12/06 01:21:07;;;;;;;39.70;20.17;;;;;;;;;;5051349;28;20419;-65
2021/12/06 01:23:47;;;;;;;40.35;19.65;;;;;;;;;;5051663;28;20140;-65
2021/12/06 01:26:55;;;;;;;38.00;19.67;;;;;;;;;;5051691;28;20053;-65
2021/12/06 01:31:48;;;;;;;40.60;19.73;;;;;;;;;;5051642;28;20535;-65
2021/12/06 01:39:46;;;;;;;43.63;21.13;;;;;;;;;;5033800;28;20486;-66
2021/12/06 01:42:13;;;;;;;42.50;21.88;;;;;;;;;;5051254;28;20051;-66
2021/12/06 01:44:40;;;;;;;47.35;21.55;;;;;;;;;;5051080;28;20134;-66
2021/12/06 01:47:09;;;;;;;43.40;20.73;;;;;;;;;;5051617;28;20044;-66
2021/12/06 01:49:39;;;;;;;43.88;21.10;;;;;;;;;;5051563;28;20048;-66
2021/12/06 01:52:08;;;;;;;43.15;21.33;;;;;;;;;;5050054;28;20048;-65
2021/12/06 01:54:34;;;;;;;43.05;21.13;;;;;;;;;;5051664;28;20696;-65
2021/12/06 01:57:00;;;;;;;40.63;19.75;;;;;;;;;;5051505;28;20606;-65
2021/12/06 01:59:26;;;;;;;41.00;21.55;;;;;;;;;;5050834;28;20112;-65
2021/12/06 02:01:54;;;;;;;43.10;21.73;;;;;;;;;;5033322;28;20076;-65
2021/12/06 02:04:20;;;;;;;40.85;21.83;;;;;;;;;;5033674;28;20066;-66
2021/12/06 02:06:46;;;;;;;43.05;21.63;;;;;;;;;;5050800;28;20037;-66
2021/12/06 02:09:13;;;;;;;43.05;21.83;;;;;;;;;;5050967;28;20094;-66
2021/12/06 02:11:40;;;;;;;45.15;22.10;;;;;;;;;;5051147;28;20052;-66
2021/12/06 02:14:37;;;;;;;44.08;20.70;;;;;;;;;;5050766;28;20083;-65
2021/12/06 02:17:04;;;;;;;42.15;20.63;;;;;;;;;;5032535;28;20057;-65
2021/12/06 02:19:34;;;;;;;41.38;20.80;;;;;;;;;;5051185;28;20067;-65
2021/12/06 02:22:00;;;;;;;45.42;21.30;;;;;;;;;;5051251;28;20049;-65
2021/12/06 02:24:27;;;;;;;42.45;20.98;;;;;;;;;;5050742;28;20122;-65
2021/12/06 02:26:53;;;;;;;36.58;18.48;;;;;;;;;;5051028;28;20128;-65
2021/12/06 02:29:20;;;;;;;43.20;20.95;;;;;;;;;;5033031;28;20044;-65
2021/12/06 02:31:46;;;;;;;43.20;21.70;;;;;;;;;;5050948;28;20072;-65
2021/12/06 02:34:13;;;;;;;37.63;18.38;;;;;;;;;;5051195;28;20091;-65
2021/12/06 02:36:39;;;;;;;41.03;19.50;;;;;;;;;;5032762;28;20048;-65
2021/12/06 02:39:13;;;;;;;41.88;20.73;;;;;;;;;;5051263;28;20441;-65
2021/12/06 02:41:39;;;;;;;40.08;19.25;;;;;;;;;;5051063;28;20049;-65
2021/12/06 02:44:06;;;;;;;38.10;19.50;;;;;;;;;;5050256;28;20123;-66
2021/12/06 02:46:32;;;;;;;41.50;20.63;;;;;;;;;;5051131;28;20102;-66
2021/12/06 02:48:58;;;;;;;41.13;20.02;;;;;;;;;;5033122;28;20049;-66
2021/12/06 02:51:27;;;;;;;39.83;19.85;;;;;;;;;;5050139;28;20036;-65
2021/12/06 02:53:54;;;;;;;43.10;20.33;;;;;;;;;;5033010;28;20136;-65
2021/12/06 02:56:39;;;;;;;42.53;19.80;;;;;;;;;;5051059;28;20041;-65
2021/12/06 02:59:08;;;;;;;39.53;19.73;;;;;;;;;;5051027;28;20124;-65
2021/12/06 03:01:34;;;;;;;40.03;20.13;;;;;;;;;;5050863;28;20041;-65
2021/12/06 03:04:01;;;;;;;43.33;20.17;;;;;;;;;;5053987;28;20529;-65
2021/12/06 03:06:29;;;;;;;45.25;20.25;;;;;;;;;;5054456;28;20045;-65
2021/12/06 03:09:05;;;;;;;46.13;21.40;;;;;;;;;;5054456;28;20056;-65
2021/12/06 03:11:42;;;;;;;48.92;21.75;;;;;;;;;;5053128;28;20045;-66
2021/12/06 03:14:10;;;;;;;50.03;20.38;;;;;;;;;;5054646;28;20036;-66
2021/12/06 03:16:37;;;;;;;47.40;21.55;;;;;;;;;;5054379;28;20037;-66
2021/12/06 03:19:05;;;;;;;44.63;20.10;;;;;;;;;;5053808;28;20040;-66
2021/12/06 03:21:31;;;;;;;44.05;19.77;;;;;;;;;;5036213;28;20052;-66
2021/12/06 03:23:58;;;;;;;47.95;21.85;;;;;;;;;;5020790;28;20077;-66
2021/12/06 03:26:25;;;;;;;48.42;22.13;;;;;;;;;;5033628;28;20772;-66
2021/12/06 03:28:51;;;;;;;55.28;23.55;;;;;;;;;;5034170;28;20041;-66
2021/12/06 03:31:18;;;;;;;49.55;22.63;;;;;;;;;;5033995;28;20037;-66
2021/12/06 03:33:46;;;;;;;56.00;23.58;;;;;;;;;;5015792;28;20049;-66
2021/12/06 03:36:13;;;;;;;51.35;23.55;;;;;;;;;;5034076;28;20052;-66
2021/12/06 03:38:39;;;;;;;49.90;23.25;;;;;;;;;;5034073;28;20045;-66
2021/12/06 03:41:06;;;;;;;48.13;22.75;;;;;;;;;;5015197;28;20420;-66
2021/12/06 03:43:33;;;;;;;47.60;22.92;;;;;;;;;;5034001;28;20052;-65
2021/12/06 03:45:59;;;;;;;53.10;23.30;;;;;;;;;;5034026;28;20056;-65
2021/12/06 03:48:25;;;;;;;47.38;20.65;;;;;;;;;;5033155;28;20481;-65
2021/12/06 03:50:51;;;;;;;51.55;22.23;;;;;;;;;;5033824;28;20037;-66
2021/12/06 03:53:17;;;;;;;51.80;23.75;;;;;;;;;;5033636;28;20033;-66
2021/12/06 03:55:44;;;;;;;48.67;21.92;;;;;;;;;;5033602;28;20042;-66
2021/12/06 03:58:10;;;;;;;50.10;23.02;;;;;;;;;;5033356;28;20465;-66
2021/12/06 04:00:36;;;;;;;54.42;22.63;;;;;;;;;;5033770;28;20392;-66
2021/12/06 04:03:02;;;;;;;55.80;25.13;;;;;;;;;;5033577;28;20045;-65
2021/12/06 04:05:28;;;;;;;57.28;24.95;;;;;;;;;;5015071;28;20045;-65
2021/12/06 04:07:55;;;;;;;54.88;23.42;;;;;;;;;;5033202;28;20091;-65
2021/12/06 04:10:21;;;;;;;55.38;23.80;;;;;;;;;;5033569;28;20088;-65
2021/12/06 04:12:47;;;;;;;48.75;21.70;;;;;;;;;;5032599;28;20045;-65
2021/12/06 04:15:14;;;;;;;53.28;24.00;;;;;;;;;;5032271;28;20041;-65
2021/12/06 04:17:40;;;;;;;56.05;23.95;;;;;;;;;;5033187;28;20400;-65
2021/12/06 04:20:09;;;;;;;57.63;24.35;;;;;;;;;;5032480;28;20202;-65
2021/12/06 04:22:35;;;;;;;54.42;24.85;;;;;;;;;;5036287;28;20057;-65
2021/12/06 04:25:02;;;;;;;52.25;23.35;;;;;;;;;;5052927;28;20107;-65
2021/12/06 04:27:29;;;;;;;52.05;24.80;;;;;;;;;;5051967;28;20496;-65
2021/12/06 04:29:56;;;;;;;61.03;25.63;;;;;;;;;;5052719;28;20040;-65
2021/12/06 04:32:22;;;;;;;51.53;23.48;;;;;;;;;;5052642;28;20048;-65
2021/12/06 04:34:48;;;;;;;57.70;23.60;;;;;;;;;;5052290;28;20037;-65
2021/12/06 04:37:15;;;;;;;53.72;23.88;;;;;;;;;;5034772;28;20041;-65
2021/12/06 04:39:42;;;;;;;57.45;23.85;;;;;;;;;;5052750;28;20427;-65
2021/12/06 04:42:08;;;;;;;51.70;21.90;;;;;;;;;;5052122;28;20174;-65
2021/12/06 04:44:34;;;;;;;55.25;23.05;;;;;;;;;;5052827;28;20116;-65
2021/12/06 04:47:01;;;;;;;56.17;23.75;;;;;;;;;;5052354;28;20175;-66
2021/12/06 04:49:29;;;;;;;48.40;22.13;;;;;;;;;;5033860;28;20045;-66
2021/12/06 04:51:56;;;;;;;53.53;24.17;;;;;;;;;;5052457;28;20041;-66
2021/12/06 04:54:24;;;;;;;48.60;22.73;;;;;;;;;;5052651;28;20495;-66
2021/12/06 04:56:55;;;;;;;49.00;22.63;;;;;;;;;;5051962;28;20048;-65
2021/12/06 04:59:34;;;;;;;56.85;22.85;;;;;;;;;;5052547;28;20040;-65
2021/12/06 05:02:01;;;;;;;46.33;21.27;;;;;;;;;;5034174;28;20063;-65
2021/12/06 05:04:30;;;;;;;55.60;24.42;;;;;;;;;;5051708;28;20040;-66
2021/12/06 05:07:03;;;;;;;54.92;23.45;;;;;;;;;;5052482;28;20037;-66
2021/12/06 05:09:32;;;;;;;51.17;22.50;;;;;;;;;;5034302;28;20102;-66
2021/12/06 05:11:58;;;;;;;47.00;21.15;;;;;;;;;;5051617;28;20044;-65
2021/12/06 05:14:25;;;;;;;46.15;20.65;;;;;;;;;;5052162;28;20041;-65
2021/12/06 05:16:51;;;;;;;48.38;21.25;;;;;;;;;;5052248;28;20048;-65
2021/12/06 05:19:17;;;;;;;46.83;21.00;;;;;;;;;;5051447;28;20037;-65
2021/12/06 05:21:43;;;;;;;46.40;20.90;;;;;;;;;;5051870;28;20537;-65
2021/12/06 05:24:09;;;;;;;44.15;20.02;;;;;;;;;;5051706;28;20068;-65
2021/12/06 05:26:36;;;;;;;45.17;21.45;;;;;;;;;;5051298;28;20041;-65
2021/12/06 05:29:03;;;;;;;45.50;21.25;;;;;;;;;;5051984;28;20345;-65
2021/12/06 05:31:30;;;;;;;50.58;20.17;;;;;;;;;;5033689;28;20124;-65
2021/12/06 05:34:02;;;;;;;45.95;20.27;;;;;;;;;;5051193;28;20032;-65
2021/12/06 05:36:28;;;;;;;40.72;19.25;;;;;;;;;;5051772;28;20090;-65
2021/12/06 05:38:55;;;;;;;51.75;22.95;;;;;;;;;;5033975;28;20438;-65
2021/12/06 05:41:21;;;;;;;53.78;23.92;;;;;;;;;;5050991;28;20090;-65
2021/12/06 05:43:47;;;;;;;50.80;22.17;;;;;;;;;;5051705;28;20041;-65
2021/12/06 05:46:14;;;;;;;51.03;22.25;;;;;;;;;;5051694;28;20052;-65
2021/12/06 05:48:41;;;;;;;52.42;21.98;;;;;;;;;;5050594;28;20047;-65
2021/12/06 05:51:07;;;;;;;53.38;21.00;;;;;;;;;;5051389;28;20041;-65
2021/12/06 05:53:34;;;;;;;51.47;22.27;;;;;;;;;;5051316;28;20048;-65
2021/12/06 05:56:01;;;;;;;57.85;23.88;;;;;;;;;;5050808;28;20458;-65
2021/12/06 05:58:27;;;;;;;57.83;23.98;;;;;;;;;;5051342;28;20041;-65
2021/12/06 06:00:54;;;;;;;51.35;22.98;;;;;;;;;;5051468;28;20506;-65
2021/12/06 06:03:20;;;;;;;53.15;22.75;;;;;;;;;;5050767;28;20052;-65
2021/12/06 06:05:46;;;;;;;50.17;22.08;;;;;;;;;;5051547;28;20482;-66
2021/12/06 06:08:12;;;;;;;53.55;22.08;;;;;;;;;;5051198;28;20036;-66
2021/12/06 06:10:39;;;;;;;50.42;22.75;;;;;;;;;;5050945;28;20033;-66
2021/12/06 06:13:05;;;;;;;49.90;20.95;;;;;;;;;;5033205;28;20040;-66
2021/12/06 06:15:31;;;;;;;57.67;23.85;;;;;;;;;;5051133;28;20051;-66
2021/12/06 06:17:58;;;;;;;54.15;23.35;;;;;;;;;;5050419;28;20033;-66
2021/12/06 06:20:45;;;;;;;57.17;23.25;;;;;;;;;;5051225;28;20041;-66
2021/12/06 06:23:11;;;;;;;57.10;23.23;;;;;;;;;;5050742;28;20057;-66
2021/12/06 06:25:38;;;;;;;52.15;22.70;;;;;;;;;;5050605;28;20049;-65
2021/12/06 06:28:05;;;;;;;49.50;21.15;;;;;;;;;;5050959;28;20094;-66
2021/12/06 06:30:31;;;;;;;52.05;23.02;;;;;;;;;;5051068;28;20418;-66
2021/12/06 06:32:57;;;;;;;63.03;23.92;;;;;;;;;;5051897;28;20082;-68
2021/12/06 06:35:24;;;;;;;54.10;22.27;;;;;;;;;;5059341;28;20503;-65
2021/12/06 06:37:50;;;;;;;52.90;21.83;;;;;;;;;;5052841;28;20048;-65
2021/12/06 06:40:16;;;;;;;57.78;23.77;;;;;;;;;;5053912;28;20049;-65
2021/12/06 06:42:42;;;;;;;52.40;23.05;;;;;;;;;;5054626;28;20079;-65
2021/12/06 06:45:09;;;;;;;55.08;23.40;;;;;;;;;;5054276;28;20040;-65
2021/12/06 06:47:35;;;;;;;58.13;21.90;;;;;;;;;;5052928;28;20049;-66
2021/12/06 06:50:02;;;;;;;52.72;21.83;;;;;;;;;;5035877;28;20053;-65
2021/12/06 06:52:28;;;;;;;55.50;22.58;;;;;;;;;;5054361;28;20055;-64
2021/12/06 06:54:55;;;;;;;58.95;23.70;;;;;;;;;;5053327;28;20595;-64
2021/12/06 06:57:21;;;;;;;55.55;23.08;;;;;;;;;;5036105;28;20043;-66
2021/12/06 06:59:48;;;;;;;62.03;23.75;;;;;;;;;;5054065;28;20095;-64
2021/12/06 07:02:14;;;;;;;59.05;23.60;;;;;;;;;;5053210;28;20044;-67
2021/12/06 07:04:40;;;;;;;62.75;24.33;;;;;;;;;;5054068;28;20415;-66
2021/12/06 07:07:06;;;;;;;57.42;23.90;;;;;;;;;;5054297;28;20045;-66
2021/12/06 07:09:32;;;;;;;59.15;24.38;;;;;;;;;;5053181;28;20032;-66
2021/12/06 07:11:59;;;;;;;54.53;23.55;;;;;;;;;;5053517;28;20045;-65
2021/12/06 07:14:26;;;;;;;59.47;24.15;;;;;;;;;;5053803;28;20037;-65
2021/12/06 07:16:52;;;;;;;61.67;24.20;;;;;;;;;;5053158;28;20037;-65
2021/12/06 07:19:18;;;;;;;69.53;27.63;;;;;;;;;;5053756;28;20037;-65
2021/12/06 07:21:44;;;;;;;61.95;24.10;;;;;;;;;;5051046;28;20572;-66
2021/12/06 07:24:11;;;;;;;56.85;23.60;;;;;;;;;;5052945;28;20483;-65
2021/12/06 07:26:37;;;;;;;59.17;23.83;;;;;;;;;;5034680;28;20044;-66
2021/12/06 07:29:03;;;;;;;52.38;22.50;;;;;;;;;;5053760;28;20052;-64
2021/12/06 07:31:30;;;;;;;54.80;22.20;;;;;;;;;;5051936;28;20474;-66
2021/12/06 07:33:57;;;;;;;50.50;21.52;;;;;;;;;;5039931;28;20128;-68
2021/12/06 07:36:25;;;;;;;51.25;22.50;;;;;;;;;;5034530;28;20533;-69
2021/12/06 07:38:51;;;;;;;53.03;22.38;;;;;;;;;;5051223;28;20090;-68
2021/12/06 07:41:21;;;;;;;54.60;21.98;;;;;;;;;;5052509;28;20032;-68
2021/12/06 07:43:47;;;;;;;55.70;22.23;;;;;;;;;;5052841;28;20045;-69
2021/12/06 07:46:13;;;;;;;53.47;22.73;;;;;;;;;;5033871;28;20202;-69
2021/12/06 07:48:40;;;;;;;49.55;20.17;;;;;;;;;;5032900;28;20095;-67
2021/12/06 07:51:07;;;;;;;53.67;21.73;;;;;;;;;;5034087;28;20083;-69
2021/12/06 07:53:34;;;;;;;57.28;22.23;;;;;;;;;;5051459;28;20052;-67
2021/12/06 07:56:00;;;;;;;46.92;19.60;;;;;;;;;;5052638;28;20554;-66
2021/12/06 07:58:26;;;;;;;42.88;18.88;;;;;;;;;;5052371;28;20167;-66
2021/12/06 08:00:52;;;;;;;49.58;19.70;;;;;;;;;;5052387;28;20041;-69
2021/12/06 08:03:22;;;;;;;46.67;19.95;;;;;;;;;;5054118;28;20530;-69
2021/12/06 08:05:49;;;;;;;49.08;20.50;;;;;;;;;;5052043;28;20234;-69
2021/12/06 08:08:22;;;;;;;45.78;19.20;;;;;;;;;;5033963;28;20116;-67
2021/12/06 08:10:50;;;;;;;51.30;20.27;;;;;;;;;;5051912;28;20052;-68
2021/12/06 08:13:18;;;;;;;52.05;21.73;;;;;;;;;;5034013;28;20049;-66
2021/12/06 08:15:45;;;;;;;47.00;20.08;;;;;;;;;;5050874;28;20075;-68
2021/12/06 08:18:12;;;;;;;44.88;20.13;;;;;;;;;;5050077;28;20041;-67
2021/12/06 08:20:38;;;;;;;46.20;20.80;;;;;;;;;;5051960;28;20067;-69
2021/12/06 08:23:05;;;;;;;48.08;19.92;;;;;;;;;;5032882;28;20706;-70
2021/12/06 08:25:32;;;;;;;46.85;20.27;;;;;;;;;;5051792;28;20045;-70
2021/12/06 08:27:58;;;;;;;50.13;19.67;;;;;;;;;;5032074;28;20110;-68
2021/12/06 08:30:26;;;;;;;47.90;18.63;;;;;;;;;;5050123;28;20053;-70
2021/12/06 08:32:57;;;;;;;48.50;20.10;;;;;;;;;;5051992;28;20387;-67
2021/12/06 08:35:23;;;;;;;44.50;19.73;;;;;;;;;;5048684;28;20038;-67
2021/12/06 08:37:49;;;;;;;48.80;21.13;;;;;;;;;;5050143;28;20049;-67
2021/12/06 08:40:16;;;;;;;47.35;21.50;;;;;;;;;;5051387;28;20526;-69
2021/12/06 08:42:43;;;;;;;45.83;20.02;;;;;;;;;;5033698;28;20052;-69
2021/12/06 08:45:11;;;;;;;44.17;19.08;;;;;;;;;;5051077;28;20044;-69
2021/12/06 08:47:37;;;;;;;40.53;17.48;;;;;;;;;;5032232;28;20052;-70
2021/12/06 08:50:05;;;;;;;44.00;19.77;;;;;;;;;;5032314;28;20056;-66
2021/12/06 08:52:31;;;;;;;41.45;19.02;;;;;;;;;;5032617;28;20384;-66
2021/12/06 08:54:57;;;;;;;43.35;19.10;;;;;;;;;;5050903;28;20040;-66
2021/12/06 08:57:23;;;;;;;48.55;21.17;;;;;;;;;;5051346;28;20041;-66
2021/12/06 08:59:50;;;;;;;47.45;21.20;;;;;;;;;;5031848;28;20063;-67
2021/12/06 09:02:16;;;;;;;53.60;24.48;;;;;;;;;;5049740;28;20052;-68
2021/12/06 09:04:43;;;;;;;61.17;26.25;;;;;;;;;;5043783;28;20434;-67
2021/12/06 09:07:12;;;;;;;59.35;25.35;;;;;;;;;;5045553;28;20796;-65
2021/12/06 09:09:45;;;;;;;63.00;26.45;;;;;;;;;;5051185;28;20044;-66
2021/12/06 09:12:12;;;;;;;66.28;26.60;;;;;;;;;;5046324;28;20120;-68
2021/12/06 09:14:39;;;;;;;74.03;28.73;;;;;;;;;;5057622;28;20037;-66
2021/12/06 09:17:05;;;;;;;75.18;30.52;;;;;;;;;;5051409;28;20059;-67
2021/12/06 09:19:31;;;;;;;74.90;30.63;;;;;;;;;;5050988;28;20041;-66
2021/12/06 09:21:58;;;;;;;87.28;34.25;;;;;;;;;;5050059;28;20091;-69
2021/12/06 09:24:24;;;;;;;86.43;32.80;;;;;;;;;;5032588;28;20064;-67
2021/12/06 09:26:50;;;;;;;78.93;30.70;;;;;;;;;;5031595;28;20122;-67
2021/12/06 09:29:17;;;;;;;67.85;26.45;;;;;;;;;;5043596;28;20040;-66
2021/12/06 09:31:43;;;;;;;60.70;24.38;;;;;;;;;;5050396;28;20041;-67
2021/12/06 09:34:10;;;;;;;51.20;23.25;;;;;;;;;;5050074;28;20033;-67
2021/12/06 09:36:37;;;;;;;58.03;22.70;;;;;;;;;;5032317;28;20041;-69
2021/12/06 09:39:05;;;;;;;49.50;21.90;;;;;;;;;;5034595;28;20037;-67
2021/12/06 09:41:32;;;;;;;46.92;20.85;;;;;;;;;;5032799;28;20056;-67
2021/12/06 09:44:00;;;;;;;45.00;19.63;;;;;;;;;;5050409;28;20064;-68
2021/12/06 09:46:26;;;;;;;41.38;18.20;;;;;;;;;;5050087;28;20047;-67
2021/12/06 09:48:52;;;;;;;40.67;17.23;;;;;;;;;;5032533;28;20064;-68
2021/12/06 09:51:22;;;;;;;36.50;17.10;;;;;;;;;;5032342;28;20045;-67
2021/12/06 09:53:49;;;;;;;35.17;17.08;;;;;;;;;;5032575;28;20064;-65
2021/12/06 09:56:18;;;;;;;37.35;16.73;;;;;;;;;;5050817;28;20059;-66
2021/12/06 09:58:45;;;;;;;40.30;16.92;;;;;;;;;;5049183;28;20083;-66
2021/12/06 10:01:21;;;;;;;33.55;16.23;;;;;;;;;;5031608;28;20067;-66
2021/12/06 10:03:48;;;;;;;41.15;18.33;;;;;;;;;;5023184;28;20081;-65
2021/12/06 10:06:15;;;;;;;39.35;17.83;;;;;;;;;;5047282;28;20052;-64
2021/12/06 10:08:44;;;;;;;36.60;17.45;;;;;;;;;;5049387;28;20040;-66
2021/12/06 10:11:12;;;;;;;43.58;17.67;;;;;;;;;;5031217;28;20048;-67
2021/12/06 10:13:39;;;;;;;42.70;18.48;;;;;;;;;;5052950;28;20029;-66
2021/12/06 10:16:05;;;;;;;40.03;18.42;;;;;;;;;;5037511;28;20048;-66
2021/12/06 10:18:32;;;;;;;42.40;18.20;;;;;;;;;;5034794;28;20037;-65
2021/12/06 10:20:58;;;;;;;40.88;16.60;;;;;;;;;;5034679;28;20060;-66
2021/12/06 10:23:24;;;;;;;42.95;17.60;;;;;;;;;;5054346;28;20057;-65
2021/12/06 10:25:52;;;;;;;37.45;17.45;;;;;;;;;;5049767;28;20120;-69
2021/12/06 10:28:19;;;;;;;35.55;16.58;;;;;;;;;;5036987;28;20071;-69
2021/12/06 10:30:50;;;;;;;38.90;17.00;;;;;;;;;;5049694;28;20059;-68
2021/12/06 10:33:27;;;;;;;36.25;14.82;;;;;;;;;;5016199;28;20037;-66
2021/12/06 10:35:55;;;;;;;39.08;16.88;;;;;;;;;;5031494;28;20048;-66
2021/12/06 10:38:29;;;;;;;40.95;17.38;;;;;;;;;;5053096;28;20044;-67
2021/12/06 10:40:57;;;;;;;32.90;15.15;;;;;;;;;;5035291;28;20041;-68
2021/12/06 10:43:23;;;;;;;37.58;15.90;;;;;;;;;;5033945;28;20037;-70
2021/12/06 10:45:49;;;;;;;33.10;15.95;;;;;;;;;;5052311;28;20048;-69
2021/12/06 10:48:18;;;;;;;36.45;16.38;;;;;;;;;;5051441;28;20037;-68
2021/12/06 10:50:56;;;;;;;33.55;15.02;;;;;;;;;;5034202;28;20455;-68
2021/12/06 10:53:28;;;;;;;27.55;13.20;;;;;;;;;;5050948;28;20049;-70
2021/12/06 10:55:55;;;;;;;32.33;15.03;;;;;;;;;;5026661;28;20116;-69
2021/12/06 10:58:24;;;;;;;30.90;14.35;;;;;;;;;;5051995;28;20087;-69
2021/12/06 11:00:50;;;;;;;27.15;13.52;;;;;;;;;;5052923;28;20068;-68
2021/12/06 11:03:27;;;;;;;29.33;14.57;;;;;;;;;;5052459;28;20116;-68
2021/12/06 11:06:07;;;;;;;28.98;13.98;;;;;;;;;;5033354;28;20055;-70
2021/12/06 11:08:37;;;;;;;31.58;14.00;;;;;;;;;;5044334;28;20068;-69
2021/12/06 11:11:05;;;;;;;33.45;14.93;;;;;;;;;;5015333;28;20044;-72
2021/12/06 11:13:34;;;;;;;35.53;15.65;;;;;;;;;;5050354;28;20042;-71
2021/12/06 11:16:00;;;;;;;33.70;15.48;;;;;;;;;;5050612;28;20751;-69
2021/12/06 11:18:34;;;;;;;36.95;16.25;;;;;;;;;;5033829;28;20059;-69
2021/12/06 11:21:00;;;;;;;36.90;16.67;;;;;;;;;;5031230;28;20049;-70
2021/12/06 11:23:27;;;;;;;36.45;15.57;;;;;;;;;;5033935;28;20055;-68
2021/12/06 11:26:01;;;;;;;38.58;16.80;;;;;;;;;;5033464;28;20045;-69
2021/12/06 11:28:30;;;;;;;35.67;16.70;;;;;;;;;;5016174;28;20060;-72
2021/12/06 11:31:00;;;;;;;37.63;15.63;;;;;;;;;;5052159;28;20673;-70
2021/12/06 11:33:27;;;;;;;39.55;16.90;;;;;;;;;;5052562;28;20068;-72
2021/12/06 11:35:53;;;;;;;36.75;16.80;;;;;;;;;;5032695;28;20484;-69
2021/12/06 11:38:19;;;;;;;41.50;17.45;;;;;;;;;;5033393;28;20106;-73
2021/12/06 11:40:45;;;;;;;37.30;15.98;;;;;;;;;;5018221;28;20037;-71
2021/12/06 11:43:12;;;;;;;35.15;15.27;;;;;;;;;;5051034;28;20479;-70
2021/12/06 11:45:51;;;;;;;34.60;15.02;;;;;;;;;;5032724;28;20047;-70
2021/12/06 11:48:18;;;;;;;44.10;17.13;;;;;;;;;;5031450;28;20645;-67
2021/12/06 11:50:53;;;;;;;33.95;15.65;;;;;;;;;;5050226;28;20040;-65
2021/12/06 11:53:20;;;;;;;36.38;15.05;;;;;;;;;;5051126;28;20033;-67
2021/12/06 11:55:49;;;;;;;29.35;14.40;;;;;;;;;;5051568;28;20044;-66
2021/12/06 11:58:23;;;;;;;37.58;15.13;;;;;;;;;;5044689;28;20041;-67
2021/12/06 12:01:02;;;;;;;32.63;14.57;;;;;;;;;;5037728;28;20048;-69
2021/12/06 12:03:32;;;;;;;31.90;14.57;;;;;;;;;;5050411;28;20468;-70
2021/12/06 12:05:59;;;;;;;33.75;14.70;;;;;;;;;;5032733;28;20037;-70
2021/12/06 12:08:25;;;;;;;35.63;14.18;;;;;;;;;;5028762;28;20045;-72
2021/12/06 12:10:53;;;;;;;37.38;15.23;;;;;;;;;;5011309;28;20119;-70
2021/12/06 12:13:23;;;;;;;38.78;16.00;;;;;;;;;;5015981;28;20044;-68
2021/12/06 12:15:49;;;;;;;34.63;14.95;;;;;;;;;;5033334;28;20049;-68
2021/12/06 12:18:15;;;;;;;40.55;15.95;;;;;;;;;;5033511;28;20449;-68
2021/12/06 12:20:42;;;;;;;34.92;15.18;;;;;;;;;;5033113;28;20048;-68
2021/12/06 12:23:09;;;;;;;39.75;16.95;;;;;;;;;;5027308;28;20044;-68
2021/12/06 12:25:45;;;;;;;40.40;16.65;;;;;;;;;;5033442;28;20052;-65
2021/12/06 12:28:28;;;;;;;36.38;16.60;;;;;;;;;;5050956;28;20048;-67
2021/12/06 12:30:56;;;;;;;36.83;17.35;;;;;;;;;;5029625;28;20077;-67
2021/12/06 12:33:22;;;;;;;42.63;18.52;;;;;;;;;;5050570;28;20033;-67
2021/12/06 12:35:50;;;;;;;40.80;18.15;;;;;;;;;;5049869;28;20036;-65
2021/12/06 12:38:20;;;;;;;47.83;19.52;;;;;;;;;;5033086;28;20063;-66
2021/12/06 12:40:48;;;;;;;43.95;19.50;;;;;;;;;;5031670;28;20032;-64
2021/12/06 12:43:18;;;;;;;49.70;20.20;;;;;;;;;;5050111;28;20127;-64
2021/12/06 12:45:49;;;;;;;49.05;20.52;;;;;;;;;;5050940;28;20519;-68
2021/12/06 12:48:20;;;;;;;52.08;22.20;;;;;;;;;;5044302;28;20055;-66
2021/12/06 12:51:02;;;;;;;56.17;20.98;;;;;;;;;;5046639;28;20084;-64
2021/12/06 12:53:28;;;;;;;54.17;21.58;;;;;;;;;;5049319;28;21013;-68
2021/12/06 12:55:54;;;;;;;55.60;23.27;;;;;;;;;;5049309;28;20738;-67
2021/12/06 12:58:24;;;;;;;54.67;22.13;;;;;;;;;;5023311;28;20037;-67
2021/12/06 13:00:59;;;;;;;58.38;23.27;;;;;;;;;;5032270;28;20098;-65
2021/12/06 13:03:44;;;;;;;58.72;22.75;;;;;;;;;;5050070;28;20879;-65
2021/12/06 13:06:13;;;;;;;53.40;22.70;;;;;;;;;;5049890;28;20431;-64
2021/12/06 13:08:39;;;;;;;55.88;22.27;;;;;;;;;;5047920;28;20120;-67
2021/12/06 13:11:05;;;;;;;52.55;21.45;;;;;;;;;;5030642;28;20841;-67
2021/12/06 13:13:35;;;;;;;55.88;22.85;;;;;;;;;;5032411;28;20037;-67
2021/12/06 13:16:22;;;;;;;56.35;23.63;;;;;;;;;;5031949;28;20045;-68
2021/12/06 13:19:08;;;;;;;58.75;24.48;;;;;;;;;;5029063;28;20080;-66
2021/12/06 13:21:43;;;;;;;60.08;24.52;;;;;;;;;;5048147;28;20094;-67
2021/12/06 13:24:13;;;;;;;56.88;24.58;;;;;;;;;;5047097;28;20863;-66
2021/12/06 13:26:43;;;;;;;66.85;26.80;;;;;;;;;;5030229;28;20080;-65
2021/12/06 13:29:11;;;;;;;66.43;24.92;;;;;;;;;;5047686;28;20025;-65
2021/12/06 13:31:37;;;;;;;62.08;24.55;;;;;;;;;;5030064;28;20361;-65
2021/12/06 13:34:20;;;;;;;67.63;27.42;;;;;;;;;;5048705;28;20119;-65
2021/12/06 13:36:48;;;;;;;66.18;26.17;;;;;;;;;;5046830;28;20032;-65
2021/12/06 13:39:33;;;;;;;71.85;27.75;;;;;;;;;;5048120;28;20064;-66
2021/12/06 13:42:00;;;;;;;80.45;30.17;;;;;;;;;;5038783;28;20048;-64
2021/12/06 13:44:40;;;;;;;79.43;30.58;;;;;;;;;;5048192;28;20549;-65
2021/12/06 13:47:15;;;;;;;85.32;31.77;;;;;;;;;;5048680;28;20036;-67
2021/12/06 13:49:51;;;;;;;83.10;31.00;;;;;;;;;;5031665;28;20100;-65
2021/12/06 13:52:28;;;;;;;72.13;29.65;;;;;;;;;;5048424;28;20041;-67
2021/12/06 13:54:54;;;;;;;82.15;30.42;;;;;;;;;;5038912;28;20041;-66
2021/12/06 13:57:21;;;;;;;77.05;30.88;;;;;;;;;;5029532;28;20116;-67
2021/12/06 13:59:55;;;;;;;78.18;31.30;;;;;;;;;;5049370;28;20040;-66
2021/12/06 14:02:26;;;;;;;78.05;31.48;;;;;;;;;;5048620;28;20557;-65
2021/12/06 14:04:52;;;;;;;79.53;33.05;;;;;;;;;;5047130;28;20079;-64
2021/12/06 14:07:19;;;;;;;86.20;34.10;;;;;;;;;;5046694;28;20511;-67
2021/12/06 14:09:49;;;;;;;86.53;34.25;;;;;;;;;;5032779;28;20395;-62
2021/12/06 14:12:18;;;;;;;89.05;34.03;;;;;;;;;;5047645;28;20664;-63
2021/12/06 14:14:48;;;;;;;80.20;32.00;;;;;;;;;;5047963;28;20094;-62
2021/12/06 14:17:15;;;;;;;72.55;29.80;;;;;;;;;;5047614;28;20048;-65
2021/12/06 14:19:42;;;;;;;82.43;31.90;;;;;;;;;;5045289;28;20432;-65
2021/12/06 14:22:09;;;;;;;82.07;30.60;;;;;;;;;;5048542;28;20131;-64
2021/12/06 14:24:36;;;;;;;75.47;31.17;;;;;;;;;;5047689;28;20100;-64
2021/12/06 14:27:03;;;;;;;76.75;30.02;;;;;;;;;;5043806;28;20036;-64
2021/12/06 14:29:30;;;;;;;84.05;32.67;;;;;;;;;;5044540;28;20154;-66
2021/12/06 14:31:57;;;;;;;75.80;31.20;;;;;;;;;;5047331;28;20049;-68